Time;durP1;ratioP1;P1;durP2;ratioP2;P2;SDS_P1;SDS_P2;PMS_P1;PMS_P2;Temp;Humidity;BMP_temperature;BMP_pressure;BME280_temperature;BME280_humidity;BME280_pressure;Samples;Min_cycle;Max_cycle;Signal;HPM_P1;HPM_P2
2021/01/30 00:02:08;;;;;;;11.13;8.07;;;5.50;99.90;;;;;;5124132;27;20193;-59
2021/01/30 00:04:36;;;;;;;13.33;9.03;;;5.50;99.90;;;;;;5125194;27;20440;-59
2021/01/30 00:07:03;;;;;;;8.73;6.80;;;5.50;99.90;;;;;;5123423;27;20499;-59
2021/01/30 00:09:28;;;;;;;10.20;6.97;;;5.50;99.90;;;;;;5123634;27;20469;-59
2021/01/30 00:11:56;;;;;;;9.23;7.67;;;5.60;99.90;;;;;;5118963;27;20502;-60
2021/01/30 00:14:24;;;;;;;12.30;8.80;;;5.60;99.90;;;;;;5117214;27;20655;-59
2021/01/30 00:16:51;;;;;;;14.23;9.50;;;5.70;99.90;;;;;;5116194;27;20982;-59
2021/01/30 00:19:17;;;;;;;12.77;8.80;;;5.70;99.90;;;;;;5120111;27;20541;-59
2021/01/30 00:21:55;;;;;;;14.97;8.97;;;5.60;99.90;;;;;;5129820;27;20464;-59
2021/01/30 00:24:22;;;;;;;13.40;8.33;;;5.60;99.90;;;;;;5125030;27;21046;-59
2021/01/30 00:27:00;;;;;;;14.43;9.60;;;5.60;99.90;;;;;;5116810;27;20455;-59
2021/01/30 00:29:29;;;;;;;15.10;9.73;;;5.60;99.90;;;;;;5122414;27;20496;-58
2021/01/30 00:31:55;;;;;;;12.90;9.17;;;5.60;99.90;;;;;;5128242;27;20973;-59
2021/01/30 00:34:23;;;;;;;13.57;8.87;;;5.60;99.90;;;;;;5102820;27;20459;-58
2021/01/30 00:36:54;;;;;;;11.90;8.33;;;5.70;99.90;;;;;;5119985;27;20447;-59
2021/01/30 00:39:20;;;;;;;6.87;5.80;;;5.80;99.90;;;;;;5120960;27;20446;-58
2021/01/30 00:41:46;;;;;;;12.80;7.47;;;5.80;99.90;;;;;;5118431;27;20841;-59
2021/01/30 00:44:13;;;;;;;8.50;6.33;;;5.80;99.90;;;;;;5126170;27;20460;-58
2021/01/30 00:46:40;;;;;;;7.33;3.50;;;5.90;99.90;;;;;;5135143;27;20427;-58
2021/01/30 00:49:06;;;;;;;3.80;3.00;;;6.20;99.90;;;;;;5127393;27;20534;-59
2021/01/30 00:51:31;;;;;;;5.80;3.80;;;6.30;99.90;;;;;;5123127;27;20538;-58
2021/01/30 00:53:57;;;;;;;4.20;2.20;;;6.40;99.90;;;;;;5127327;27;20442;-59
2021/01/30 00:56:23;;;;;;;5.53;2.83;;;6.50;99.90;;;;;;5116362;27;20238;-58
2021/01/30 00:58:50;;;;;;;3.40;1.93;;;6.50;99.90;;;;;;5121462;27;20451;-59
2021/01/30 01:01:15;;;;;;;3.17;2.37;;;6.70;99.90;;;;;;5119197;27;20295;-59
2021/01/30 01:03:41;;;;;;;4.37;2.00;;;6.70;99.90;;;;;;5125210;27;20434;-59
2021/01/30 01:06:07;;;;;;;3.07;2.13;;;6.80;99.90;;;;;;5122029;27;20200;-58
2021/01/30 01:08:33;;;;;;;3.73;2.97;;;6.80;99.90;;;;;;5120786;27;20182;-59
2021/01/30 01:11:00;;;;;;;4.70;3.40;;;6.80;99.90;;;;;;5118032;27;20506;-58
2021/01/30 01:13:27;;;;;;;3.77;2.43;;;6.80;99.90;;;;;;5125134;27;20432;-59
2021/01/30 01:15:54;;;;;;;3.33;1.83;;;6.80;99.90;;;;;;5115398;27;20489;-59
2021/01/30 01:18:20;;;;;;;2.23;1.97;;;6.90;99.90;;;;;;5126818;27;20439;-60
2021/01/30 01:20:46;;;;;;;2.20;1.40;;;7.00;99.90;;;;;;5116558;27;20448;-59
2021/01/30 01:23:11;;;;;;;2.43;2.20;;;7.30;99.90;;;;;;5126009;27;20516;-59
2021/01/30 01:25:37;;;;;;;1.90;1.30;;;7.40;99.90;;;;;;5121378;27;20434;-58
2021/01/30 01:28:03;;;;;;;1.47;1.10;;;7.50;99.90;;;;;;5111947;27;20239;-59
2021/01/30 01:30:30;;;;;;;5.47;1.40;;;7.40;99.90;;;;;;5116135;27;20794;-58
2021/01/30 01:32:57;;;;;;;4.13;1.37;;;7.30;99.90;;;;;;5117876;27;20990;-58
2021/01/30 01:35:29;;;;;;;2.27;1.20;;;7.30;99.90;;;;;;5131061;27;20462;-59
2021/01/30 01:37:55;;;;;;;2.17;1.97;;;7.30;99.90;;;;;;5109785;27;20427;-59
2021/01/30 01:40:28;;;;;;;2.27;1.50;;;7.30;99.90;;;;;;5116567;27;20977;-59
2021/01/30 01:43:06;;;;;;;2.50;1.60;;;7.20;99.90;;;;;;5122551;27;20288;-59
2021/01/30 01:45:32;;;;;;;1.97;1.87;;;7.20;99.90;;;;;;5131011;27;20838;-59
2021/01/30 01:48:04;;;;;;;3.77;1.30;;;7.20;99.90;;;;;;5122254;27;20428;-59
2021/01/30 01:50:43;;;;;;;1.80;1.37;;;7.20;99.90;;;;;;5126853;27;20645;-60
2021/01/30 01:53:24;;;;;;;2.60;1.40;;;7.10;99.90;;;;;;5111108;27;20466;-59
2021/01/30 01:55:54;;;;;;;2.20;1.30;;;7.10;99.90;;;;;;5119894;27;20442;-59
2021/01/30 01:58:21;;;;;;;3.60;1.50;;;7.20;99.90;;;;;;5125845;27;20439;-59
2021/01/30 02:00:48;;;;;;;2.20;1.40;;;7.20;99.90;;;;;;5116274;27;20431;-59
2021/01/30 02:03:19;;;;;;;2.73;1.50;;;7.20;99.90;;;;;;5106088;28;20505;-58
2021/01/30 02:05:46;;;;;;;1.47;1.37;;;7.40;99.90;;;;;;5111202;28;20443;-58
2021/01/30 02:08:14;;;;;;;2.57;1.50;;;7.40;99.90;;;;;;5118199;27;20446;-59
2021/01/30 02:10:46;;;;;;;1.77;1.20;;;8.10;99.90;;;;;;5131678;27;20466;-59
2021/01/30 02:13:27;;;;;;;2.87;1.47;;;7.50;99.90;;;;;;5120001;27;20448;-59
2021/01/30 02:16:04;;;;;;;3.13;1.93;;;7.50;99.90;;;;;;5123578;27;20830;-59
2021/01/30 02:18:47;;;;;;;2.80;1.50;;;7.50;99.90;;;;;;5124303;27;20784;-59
2021/01/30 02:21:43;;;;;;;1.67;1.20;;;7.50;99.90;;;;;;5124465;27;21116;-58
2021/01/30 02:24:52;;;;;;;1.83;1.23;;;7.50;99.90;;;;;;5102372;28;20436;-58
2021/01/30 02:27:37;;;;;;;2.37;1.30;;;7.50;99.90;;;;;;5123514;27;20498;-58
2021/01/30 02:30:24;;;;;;;2.97;1.63;;;7.40;99.90;;;;;;5125110;27;20434;-58
2021/01/30 02:33:14;;;;;;;1.77;1.40;;;7.20;99.90;;;;;;5119860;27;20462;-58
2021/01/30 02:36:17;;;;;;;1.43;1.30;;;7.20;99.90;;;;;;5119736;28;20463;-58
2021/01/30 02:38:51;;;;;;;1.87;1.37;;;7.20;99.90;;;;;;5119893;27;20431;-59
2021/01/30 02:41:26;;;;;;;3.47;1.43;;;7.20;99.90;;;;;;5132280;27;20435;-58
2021/01/30 02:43:56;;;;;;;1.50;1.20;;;7.10;99.90;;;;;;5118507;27;20935;-58
2021/01/30 02:46:28;;;;;;;1.40;1.30;;;7.10;99.90;;;;;;5121249;27;20769;-58
2021/01/30 02:49:00;;;;;;;1.50;1.40;;;7.00;99.90;;;;;;5114031;27;20883;-59
2021/01/30 02:51:33;;;;;;;1.80;1.70;;;7.10;99.90;;;;;;5129383;27;20439;-58
2021/01/30 02:54:01;;;;;;;2.10;1.17;;;7.10;99.90;;;;;;5120352;27;20431;-58
2021/01/30 02:56:28;;;;;;;1.67;1.30;;;7.00;99.90;;;;;;5119959;27;21030;-59
2021/01/30 02:59:06;;;;;;;1.40;1.30;;;7.00;99.90;;;;;;5124891;27;20446;-59
2021/01/30 03:01:37;;;;;;;2.90;1.33;;;7.00;99.90;;;;;;5134095;27;20450;-59
2021/01/30 03:04:14;;;;;;;1.97;1.77;;;7.10;99.90;;;;;;5122525;27;20873;-59
2021/01/30 03:07:05;;;;;;;2.07;1.87;;;7.00;99.90;;;;;;5116059;27;20471;-59
2021/01/30 03:09:54;;;;;;;3.00;2.13;;;7.00;99.90;;;;;;5118695;27;20780;-59
2021/01/30 03:12:55;;;;;;;2.00;1.57;;;7.00;99.90;;;;;;5126003;27;20431;-59
2021/01/30 03:15:45;;;;;;;1.93;1.83;;;7.00;99.90;;;;;;5123490;27;21058;-59
2021/01/30 03:18:13;;;;;;;4.30;2.30;;;6.90;99.90;;;;;;5122267;27;20858;-59
2021/01/30 03:20:42;;;;;;;2.80;2.27;;;7.60;99.90;;;;;;5129800;27;20526;-59
2021/01/30 03:23:13;;;;;;;3.37;2.30;;;6.80;99.90;;;;;;5127207;27;20821;-58
2021/01/30 03:25:41;;;;;;;2.60;2.37;;;6.70;99.90;;;;;;5117576;27;20435;-58
2021/01/30 03:28:07;;;;;;;5.83;3.87;;;6.50;99.90;;;;;;5130445;27;20431;-58
2021/01/30 03:30:33;;;;;;;6.33;5.17;;;6.40;99.90;;;;;;5132522;27;20441;-58
2021/01/30 03:33:00;;;;;;;5.27;4.43;;;6.10;99.90;;;;;;5125421;27;20469;-58
2021/01/30 03:35:26;;;;;;;7.03;5.77;;;6.00;99.90;;;;;;5123853;27;20496;-58
2021/01/30 03:37:51;;;;;;;6.47;5.73;;;5.80;99.90;;;;;;5130920;27;20913;-58
2021/01/30 03:40:19;;;;;;;6.57;5.70;;;5.80;99.90;;;;;;5123472;27;20188;-58
2021/01/30 03:42:45;;;;;;;8.40;6.10;;;5.70;99.90;;;;;;5127386;27;20206;-57
2021/01/30 03:45:14;;;;;;;7.67;4.53;;;5.50;99.90;;;;;;5119876;27;20439;-58
2021/01/30 03:47:39;;;;;;;6.97;5.60;;;5.50;99.90;;;;;;5125125;27;20189;-59
2021/01/30 03:50:07;;;;;;;9.20;5.67;;;5.20;99.90;;;;;;5123978;27;20443;-59
2021/01/30 03:52:33;;;;;;;7.63;5.80;;;5.00;99.90;;;;;;5128517;27;20200;-59
2021/01/30 03:54:59;;;;;;;8.60;5.70;;;4.80;99.90;;;;;;5118391;27;20432;-59
2021/01/30 03:57:25;;;;;;;7.17;5.53;;;4.60;99.90;;;;;;5127167;27;20467;-58
2021/01/30 03:59:51;;;;;;;8.70;6.40;;;4.50;99.90;;;;;;5129055;27;20188;-58
2021/01/30 04:02:17;;;;;;;10.57;7.00;;;4.40;99.90;;;;;;5129990;27;20217;-58
2021/01/30 04:04:46;;;;;;;8.47;6.90;;;4.20;99.90;;;;;;5127415;27;20437;-58
2021/01/30 04:07:13;;;;;;;10.20;7.13;;;4.20;99.90;;;;;;5125843;27;20441;-58
2021/01/30 04:09:39;;;;;;;10.37;7.73;;;4.10;99.90;;;;;;5135831;27;20521;-58
2021/01/30 04:12:05;;;;;;;9.90;7.50;;;4.20;99.90;;;;;;5123202;27;20526;-58
2021/01/30 04:14:32;;;;;;;13.13;8.63;;;4.10;99.90;;;;;;5123466;27;20192;-58
2021/01/30 04:16:58;;;;;;;10.63;8.90;;;4.00;99.90;;;;;;5134467;27;20445;-58
2021/01/30 04:19:23;;;;;;;10.93;8.70;;;3.90;99.90;;;;;;5121058;27;20439;-58
2021/01/30 04:21:49;;;;;;;8.97;7.20;;;3.90;99.90;;;;;;5127800;27;20215;-58
2021/01/30 04:24:15;;;;;;;10.10;7.90;;;3.70;99.90;;;;;;5122565;27;20570;-57
2021/01/30 04:26:40;;;;;;;11.97;8.30;;;3.50;99.90;;;;;;5116752;27;20175;-58
2021/01/30 04:29:06;;;;;;;14.93;9.70;;;3.50;99.90;;;;;;5128402;27;20234;-58
2021/01/30 04:31:32;;;;;;;13.03;10.10;;;3.40;99.90;;;;;;5130760;27;20251;-57
2021/01/30 04:33:58;;;;;;;10.80;8.67;;;3.40;99.90;;;;;;5125096;27;20515;-58
2021/01/30 04:36:24;;;;;;;12.10;9.40;;;3.30;99.90;;;;;;5124382;27;20201;-58
2021/01/30 04:38:50;;;;;;;12.03;9.87;;;3.40;99.90;;;;;;5120599;27;20189;-58
2021/01/30 04:41:37;;;;;;;12.97;10.93;;;3.30;99.90;;;;;;5121584;27;20835;-58
2021/01/30 04:44:16;;;;;;;13.57;10.90;;;3.30;99.90;;;;;;5131044;27;20447;-58
2021/01/30 04:47:29;;;;;;;13.63;11.40;;;3.30;99.90;;;;;;5120461;27;20511;-57
2021/01/30 04:50:33;;;;;;;15.70;11.93;;;3.20;99.90;;;;;;5106692;27;20445;-57
2021/01/30 04:53:14;;;;;;;16.10;12.77;;;3.10;99.90;;;;;;5126629;27;20444;-58
2021/01/30 04:55:49;;;;;;;16.20;11.30;;;3.00;99.90;;;;;;5124816;27;20479;-57
2021/01/30 04:58:28;;;;;;;20.10;15.17;;;2.90;99.90;;;;;;5126300;27;20547;-57
2021/01/30 05:01:00;;;;;;;22.27;16.33;;;3.00;99.90;;;;;;5123931;27;20436;-57
2021/01/30 05:03:38;;;;;;;23.13;15.23;;;3.00;99.90;;;;;;5130256;27;20557;-58
2021/01/30 05:06:20;;;;;;;20.40;14.33;;;3.00;99.90;;;;;;5123464;27;20454;-58
2021/01/30 05:08:53;;;;;;;22.73;16.63;;;3.00;99.90;;;;;;5131756;27;20434;-58
2021/01/30 05:11:26;;;;;;;23.80;17.73;;;3.00;99.90;;;;;;5117166;27;20437;-58
2021/01/30 05:14:10;;;;;;;24.03;17.50;;;2.90;99.90;;;;;;5112031;27;20518;-58
2021/01/30 05:16:41;;;;;;;29.10;19.87;;;2.90;99.90;;;;;;5128817;27;20505;-58
2021/01/30 05:19:12;;;;;;;28.67;20.70;;;2.80;99.90;;;;;;5126511;27;20446;-58
2021/01/30 05:21:50;;;;;;;29.30;19.50;;;2.60;99.90;;;;;;5121140;27;20457;-58
2021/01/30 05:24:16;;;;;;;37.07;21.47;;;2.40;99.90;;;;;;5115860;27;20444;-58
2021/01/30 05:26:51;;;;;;;31.00;19.87;;;2.30;99.90;;;;;;5125485;27;20425;-58
2021/01/30 05:29:38;;;;;;;29.00;18.73;;;2.30;99.90;;;;;;5125167;27;20831;-58
2021/01/30 05:32:41;;;;;;;29.77;19.00;;;2.30;99.90;;;;;;5123637;27;20471;-58
2021/01/30 05:35:13;;;;;;;29.80;19.53;;;2.30;99.90;;;;;;5125878;27;20530;-58
2021/01/30 05:37:46;;;;;;;33.70;20.87;;;2.20;99.90;;;;;;5120954;27;20459;-58
2021/01/30 05:41:02;;;;;;;29.57;19.23;;;2.10;99.90;;;;;;5123132;27;20451;-58
2021/01/30 05:43:42;;;;;;;30.43;17.87;;;2.30;99.90;;;;;;5049478;28;20470;-57
2021/01/30 05:46:16;;;;;;;26.60;17.37;;;2.40;99.90;;;;;;5049790;28;20465;-58
2021/01/30 05:48:46;;;;;;;30.73;19.20;;;2.30;99.90;;;;;;5090351;27;20444;-58
2021/01/30 05:51:33;;;;;;;29.60;17.63;;;2.10;99.90;;;;;;5120378;27;20844;-58
2021/01/30 05:54:00;;;;;;;25.00;16.73;;;2.10;99.90;;;;;;5126677;27;20444;-58
2021/01/30 05:56:30;;;;;;;28.90;16.97;;;2.20;99.90;;;;;;5126415;27;20477;-57
2021/01/30 05:58:55;;;;;;;24.57;16.60;;;2.20;99.90;;;;;;5120159;27;20441;-58
2021/01/30 06:01:30;;;;;;;27.67;17.17;;;2.30;99.90;;;;;;5115303;27;20499;-57
2021/01/30 06:04:10;;;;;;;21.97;14.77;;;2.40;99.90;;;;;;5127812;27;20620;-57
2021/01/30 06:06:50;;;;;;;22.37;14.60;;;2.30;99.90;;;;;;5121472;27;21002;-58
2021/01/30 06:09:36;;;;;;;16.13;12.00;;;2.20;99.90;;;;;;5123646;27;20789;-58
2021/01/30 06:12:23;;;;;;;21.80;13.90;;;2.20;99.90;;;;;;5120886;27;20463;-57
2021/01/30 06:14:49;;;;;;;20.07;12.33;;;2.10;99.90;;;;;;5105930;27;20476;-58
2021/01/30 06:17:23;;;;;;;15.80;11.47;;;2.00;99.90;;;;;;5127188;27;20439;-58
2021/01/30 06:20:20;;;;;;;18.33;11.87;;;2.00;99.90;;;;;;5122903;27;20440;-58
2021/01/30 06:23:08;;;;;;;16.13;10.53;;;1.90;99.90;;;;;;5109728;27;20555;-57
2021/01/30 06:25:37;;;;;;;17.13;11.77;;;1.90;99.90;;;;;;5115090;27;20987;-58
2021/01/30 06:28:26;;;;;;;16.73;11.80;;;1.90;99.90;;;;;;5119525;27;20548;-58
2021/01/30 06:30:54;;;;;;;18.63;10.50;;;1.90;99.90;;;;;;5120056;27;20439;-58
2021/01/30 06:33:33;;;;;;;19.67;11.43;;;1.90;99.90;;;;;;5122777;27;20474;-57
2021/01/30 06:36:11;;;;;;;18.13;11.43;;;1.80;99.90;;;;;;5115409;27;20964;-57
2021/01/30 06:38:46;;;;;;;17.00;11.97;;;1.80;99.90;;;;;;5120379;28;20554;-57
2021/01/30 06:41:27;;;;;;;20.63;12.30;;;1.60;99.90;;;;;;5124963;27;20514;-59
2021/01/30 06:44:08;;;;;;;16.30;10.80;;;1.60;99.90;;;;;;5123875;28;20435;-58
2021/01/30 06:47:19;;;;;;;17.50;11.00;;;1.60;99.90;;;;;;5113076;28;20895;-57
2021/01/30 06:49:48;;;;;;;14.60;10.13;;;1.70;99.90;;;;;;5107830;28;20440;-58
2021/01/30 06:52:23;;;;;;;15.53;10.73;;;1.70;99.90;;;;;;5106977;28;20525;-58
2021/01/30 06:55:11;;;;;;;17.80;10.70;;;1.50;99.90;;;;;;5111334;28;20450;-57
2021/01/30 06:57:42;;;;;;;17.00;10.17;;;1.30;99.90;;;;;;5123320;28;20526;-58
2021/01/30 07:00:23;;;;;;;16.03;11.40;;;1.30;99.90;;;;;;5124048;28;20497;-57
2021/01/30 07:03:02;;;;;;;17.67;11.00;;;1.40;99.90;;;;;;5108569;28;20463;-59
2021/01/30 07:05:46;;;;;;;17.87;10.87;;;1.40;99.90;;;;;;5125886;27;20427;-57
2021/01/30 07:08:17;;;;;;;15.93;9.60;;;1.50;99.90;;;;;;5125461;27;20873;-58
2021/01/30 07:11:00;;;;;;;15.20;9.50;;;1.50;99.90;;;;;;5123523;28;20528;-58
2021/01/30 07:13:40;;;;;;;13.43;9.80;;;1.40;99.90;;;;;;5113685;28;20456;-57
2021/01/30 07:16:40;;;;;;;14.20;10.17;;;1.40;99.90;;;;;;5117719;28;20435;-58
2021/01/30 07:19:21;;;;;;;15.90;10.30;;;1.50;99.90;;;;;;5114378;28;20968;-58
2021/01/30 07:21:58;;;;;;;11.40;8.00;;;1.50;99.90;;;;;;5124647;28;20459;-58
2021/01/30 07:24:36;;;;;;;11.73;8.93;;;1.50;99.90;;;;;;5119670;27;20439;-58
2021/01/30 07:27:24;;;;;;;15.03;9.10;;;1.50;99.90;;;;;;5130929;27;20464;-58
2021/01/30 07:30:14;;;;;;;11.77;8.67;;;1.60;99.90;;;;;;5118187;27;20788;-58
2021/01/30 07:32:55;;;;;;;14.97;10.53;;;1.60;99.90;;;;;;5119824;27;20841;-58
2021/01/30 07:35:28;;;;;;;13.60;9.00;;;1.60;99.90;;;;;;5122039;27;20473;-58
2021/01/30 07:38:13;;;;;;;13.00;9.50;;;1.60;99.90;;;;;;5120487;27;20487;-59
2021/01/30 07:40:59;;;;;;;12.47;8.83;;;1.60;99.90;;;;;;5121133;27;20436;-57
2021/01/30 07:43:34;;;;;;;15.37;9.07;;;1.60;99.90;;;;;;5117510;27;20684;-58
2021/01/30 07:46:20;;;;;;;13.50;9.20;;;1.50;99.90;;;;;;5119543;27;20853;-58
2021/01/30 07:48:59;;;;;;;13.80;9.57;;;1.50;99.90;;;;;;5119887;27;20475;-58
2021/01/30 07:51:42;;;;;;;12.63;9.60;;;1.70;99.90;;;;;;5127497;27;20487;-58
2021/01/30 07:54:08;;;;;;;14.53;8.83;;;1.70;99.90;;;;;;5120699;27;20430;-58
2021/01/30 07:56:57;;;;;;;15.37;10.40;;;1.80;99.90;;;;;;5126723;27;20809;-58
2021/01/30 07:59:35;;;;;;;11.97;9.33;;;1.70;99.90;;;;;;5116292;27;20190;-57
2021/01/30 08:02:35;;;;;;;12.93;9.07;;;1.60;99.90;;;;;;5124075;27;20482;-57
2021/01/30 08:05:21;;;;;;;11.67;8.43;;;1.70;99.90;;;;;;5115374;27;20541;-58
2021/01/30 08:08:27;;;;;;;13.57;9.27;;;1.80;99.90;;;;;;5112933;27;20464;-58
2021/01/30 08:11:10;;;;;;;11.63;8.57;;;1.60;99.90;;;;;;5005922;28;20575;-58
2021/01/30 08:14:19;;;;;;;15.33;9.93;;;1.60;99.90;;;;;;5114351;27;20436;-59
2021/01/30 08:17:10;;;;;;;14.53;9.63;;;1.80;99.90;;;;;;5121700;27;21084;-58
2021/01/30 08:20:06;;;;;;;11.83;9.50;;;1.90;99.90;;;;;;5111497;27;20429;-59
2021/01/30 08:22:56;;;;;;;17.60;12.00;;;2.00;99.90;;;;;;5118986;27;20471;-59
2021/01/30 08:25:55;;;;;;;19.20;11.87;;;2.00;99.90;;;;;;5126311;27;20503;-58
2021/01/30 08:28:27;;;;;;;15.17;10.63;;;2.00;99.90;;;;;;5123925;27;20442;-58
2021/01/30 08:30:54;;;;;;;15.37;10.40;;;2.00;99.90;;;;;;5122467;27;20523;-58
2021/01/30 08:33:20;;;;;;;14.30;10.40;;;1.90;99.90;;;;;;5119052;27;21004;-58
2021/01/30 08:36:29;;;;;;;11.77;8.77;;;1.80;99.90;;;;;;5125196;27;20563;-58
2021/01/30 08:39:04;;;;;;;12.60;9.20;;;1.90;99.90;;;;;;5120417;27;20433;-58
2021/01/30 08:41:41;;;;;;;15.07;10.97;;;2.10;99.90;;;;;;5124390;27;21008;-58
2021/01/30 08:44:17;;;;;;;13.60;10.17;;;2.10;99.90;;;;;;5119954;27;20526;-58
2021/01/30 08:46:46;;;;;;;14.80;10.23;;;2.00;99.90;;;;;;5124161;27;20519;-58
2021/01/30 08:49:22;;;;;;;12.03;9.60;;;2.10;99.90;;;;;;5121709;27;20535;-58
2021/01/30 08:52:14;;;;;;;14.47;10.60;;;2.00;99.90;;;;;;5114491;27;20445;-58
2021/01/30 08:54:44;;;;;;;14.73;11.13;;;2.00;99.90;;;;;;5110569;27;20444;-58
2021/01/30 08:57:32;;;;;;;11.30;9.80;;;1.90;99.90;;;;;;5120629;27;20443;-58
2021/01/30 09:00:03;;;;;;;13.60;9.93;;;1.90;99.90;;;;;;5123846;27;20443;-58
2021/01/30 09:02:28;;;;;;;15.47;11.40;;;1.90;99.90;;;;;;5128858;27;20466;-57
2021/01/30 09:05:06;;;;;;;17.33;11.37;;;1.90;99.90;;;;;;5127990;27;20427;-58
2021/01/30 09:07:51;;;;;;;18.67;11.50;;;2.00;99.90;;;;;;5121052;27;20188;-58
2021/01/30 09:10:22;;;;;;;14.80;10.97;;;2.20;99.90;;;;;;5117169;27;20492;-58
2021/01/30 09:13:11;;;;;;;12.97;10.60;;;2.10;99.90;;;;;;5122588;27;20523;-59
2021/01/30 09:15:40;;;;;;;15.40;11.27;;;2.20;99.90;;;;;;5115934;27;20446;-57
2021/01/30 09:18:31;;;;;;;12.20;10.87;;;2.10;99.90;;;;;;5124166;27;20448;-57
2021/01/30 09:21:00;;;;;;;15.90;10.10;;;2.30;99.90;;;;;;5121792;27;20449;-58
2021/01/30 09:23:44;;;;;;;16.03;10.77;;;2.20;99.90;;;;;;5122949;27;20995;-57
2021/01/30 09:26:20;;;;;;;14.30;10.80;;;2.30;99.90;;;;;;5116869;27;20855;-58
2021/01/30 09:28:53;;;;;;;13.70;10.50;;;2.40;99.90;;;;;;5125962;27;20416;-58
2021/01/30 09:31:19;;;;;;;13.70;9.20;;;2.50;99.90;;;;;;5118251;27;20420;-57
2021/01/30 09:34:14;;;;;;;13.13;10.23;;;2.50;99.90;;;;;;5113275;28;20575;-57
2021/01/30 09:36:47;;;;;;;14.37;10.47;;;2.50;99.90;;;;;;5124539;27;20182;-56
2021/01/30 09:39:32;;;;;;;14.43;10.27;;;2.40;99.90;;;;;;5129232;27;20434;-54
2021/01/30 09:42:07;;;;;;;12.40;10.60;;;2.40;99.90;;;;;;5118902;27;20459;-53
2021/01/30 09:44:33;;;;;;;13.20;10.43;;;2.50;99.90;;;;;;5119267;27;20780;-54
2021/01/30 09:47:04;;;;;;;13.83;10.17;;;2.60;99.90;;;;;;5118912;27;20434;-53
2021/01/30 09:49:39;;;;;;;16.13;10.30;;;2.60;99.90;;;;;;5122659;27;20439;-55
2021/01/30 09:52:06;;;;;;;15.20;11.30;;;2.50;99.90;;;;;;5126583;27;20651;-54
2021/01/30 09:54:32;;;;;;;12.70;10.20;;;2.60;99.90;;;;;;5118800;27;20439;-55
2021/01/30 09:57:02;;;;;;;18.30;10.70;;;4.30;99.90;;;;;;5123136;27;20445;-54
2021/01/30 09:59:29;;;;;;;13.30;10.77;;;2.40;99.90;;;;;;5120096;27;20440;-54
2021/01/30 10:02:17;;;;;;;12.77;10.37;;;2.30;99.90;;;;;;5112214;28;20449;-54
2021/01/30 10:04:43;;;;;;;12.83;10.20;;;2.20;99.90;;;;;;5127442;27;20514;-54
2021/01/30 10:07:16;;;;;;;12.40;9.00;;;2.20;99.90;;;;;;5126757;27;20954;-55
2021/01/30 10:09:47;;;;;;;16.50;11.00;;;2.30;99.90;;;;;;5120721;27;20474;-54
2021/01/30 10:12:16;;;;;;;13.23;10.83;;;2.30;99.90;;;;;;5127648;27;20450;-54
2021/01/30 10:14:49;;;;;;;14.37;11.53;;;2.40;99.90;;;;;;5118701;27;20441;-55
2021/01/30 10:17:30;;;;;;;13.67;10.13;;;2.40;99.90;;;;;;5126349;27;20784;-55
2021/01/30 10:20:04;;;;;;;12.63;9.23;;;2.40;99.90;;;;;;5120219;27;20784;-55
2021/01/30 10:22:48;;;;;;;13.93;10.53;;;2.40;99.90;;;;;;5119732;27;20818;-54
2021/01/30 10:25:23;;;;;;;16.93;10.50;;;2.40;99.90;;;;;;5117005;27;20524;-53
2021/01/30 10:27:49;;;;;;;12.87;10.13;;;2.30;99.90;;;;;;5118399;27;20447;-55
2021/01/30 10:30:18;;;;;;;14.40;11.10;;;2.40;99.90;;;;;;5128120;27;20440;-54
2021/01/30 10:32:53;;;;;;;14.63;10.13;;;2.50;99.90;;;;;;5114730;28;20471;-57
2021/01/30 10:35:27;;;;;;;13.03;10.33;;;2.30;99.90;;;;;;5124188;27;20812;-55
2021/01/30 10:38:10;;;;;;;13.33;9.70;;;2.30;99.90;;;;;;5119118;27;20558;-54
2021/01/30 10:40:58;;;;;;;12.80;9.63;;;2.40;99.90;;;;;;5126813;27;20439;-54
2021/01/30 10:43:28;;;;;;;12.80;9.87;;;2.50;99.90;;;;;;5126401;27;20499;-56
2021/01/30 10:46:05;;;;;;;15.73;11.17;;;2.40;99.90;;;;;;5119663;27;22128;-54
2021/01/30 10:48:33;;;;;;;13.43;10.00;;;2.30;99.90;;;;;;5117310;28;20433;-54
2021/01/30 10:51:16;;;;;;;13.17;10.10;;;2.30;99.90;;;;;;5126048;27;20964;-54
2021/01/30 10:53:42;;;;;;;15.90;11.43;;;1.00;99.90;;;;;;5122176;28;20530;-55
2021/01/30 10:56:25;;;;;;;15.90;11.60;;;2.40;99.90;;;;;;5120453;27;20783;-56
2021/01/30 10:58:56;;;;;;;16.70;11.27;;;2.20;99.90;;;;;;5122884;27;20497;-54
2021/01/30 11:01:25;;;;;;;15.27;11.37;;;2.20;99.90;;;;;;5121815;27;20438;-55
2021/01/30 11:03:52;;;;;;;14.87;11.20;;;2.20;99.90;;;;;;5124447;27;20442;-56
2021/01/30 11:06:36;;;;;;;15.03;11.80;;;2.20;99.90;;;;;;5120171;27;20428;-54
2021/01/30 11:09:21;;;;;;;17.10;11.90;;;2.20;99.90;;;;;;5124540;27;20446;-54
2021/01/30 11:11:51;;;;;;;16.03;11.27;;;2.30;99.90;;;;;;5121896;27;20436;-54
2021/01/30 11:14:31;;;;;;;17.93;12.97;;;2.20;99.90;;;;;;5118196;27;20947;-54
2021/01/30 11:16:58;;;;;;;15.60;11.07;;;2.40;99.90;;;;;;5121023;27;20479;-53
2021/01/30 11:19:41;;;;;;;15.93;11.37;;;3.30;99.90;;;;;;5121414;27;20434;-55
2021/01/30 11:22:17;;;;;;;16.03;12.00;;;2.50;99.90;;;;;;5125854;27;20456;-53
2021/01/30 11:24:48;;;;;;;15.97;11.33;;;2.70;99.90;;;;;;5131099;27;20435;-56
2021/01/30 11:27:27;;;;;;;22.20;13.20;;;2.60;99.90;;;;;;5124598;27;20487;-54
2021/01/30 11:29:52;;;;;;;22.53;13.67;;;2.40;99.90;;;;;;5122227;27;20439;-55
2021/01/30 11:32:22;;;;;;;18.03;13.20;;;2.30;99.90;;;;;;5132712;27;20460;-53
2021/01/30 11:34:52;;;;;;;18.70;12.77;;;2.30;99.90;;;;;;5127279;27;20276;-53
2021/01/30 11:37:17;;;;;;;23.60;14.27;;;2.30;99.90;;;;;;5124329;27;20429;-56
2021/01/30 11:39:43;;;;;;;16.97;12.50;;;2.40;99.90;;;;;;5127174;27;20550;-57
2021/01/30 11:42:10;;;;;;;19.07;13.00;;;2.30;99.90;;;;;;5128543;27;20282;-54
2021/01/30 11:44:35;;;;;;;19.63;13.47;;;2.30;99.90;;;;;;5123082;27;20439;-58
2021/01/30 11:47:01;;;;;;;20.33;13.40;;;2.40;99.90;;;;;;5118862;27;20861;-58
2021/01/30 11:49:27;;;;;;;19.40;13.40;;;2.40;99.90;;;;;;5114545;28;20658;-58
2021/01/30 11:51:53;;;;;;;19.17;13.73;;;2.30;99.90;;;;;;5113117;27;20489;-59
2021/01/30 11:54:19;;;;;;;21.93;13.47;;;2.40;99.90;;;;;;5114332;28;20260;-56
2021/01/30 11:56:45;;;;;;;20.20;12.90;;;2.40;99.90;;;;;;5116906;27;20190;-59
2021/01/30 11:59:12;;;;;;;19.50;13.60;;;2.40;99.90;;;;;;5134659;27;20444;-57
2021/01/30 12:01:40;;;;;;;26.70;15.33;;;2.30;99.90;;;;;;5121570;27;20428;-57
2021/01/30 12:04:08;;;;;;;18.90;12.63;;;2.20;99.90;;;;;;5111331;28;20789;-59
2021/01/30 12:06:34;;;;;;;20.73;13.20;;;2.20;99.90;;;;;;5113768;28;20438;-59
2021/01/30 12:09:00;;;;;;;23.47;14.40;;;2.20;99.90;;;;;;5114053;28;20431;-58
2021/01/30 12:11:25;;;;;;;21.23;14.67;;;2.30;99.90;;;;;;5113432;28;20201;-57
2021/01/30 12:13:51;;;;;;;20.87;14.30;;;2.40;99.90;;;;;;5109835;28;20193;-58
2021/01/30 12:16:22;;;;;;;21.67;12.97;;;2.50;99.90;;;;;;5111329;27;20191;-59
2021/01/30 12:18:47;;;;;;;25.20;15.07;;;2.50;99.90;;;;;;5114126;28;20427;-58
2021/01/30 12:21:13;;;;;;;27.70;14.87;;;2.30;99.90;;;;;;5114044;28;20514;-57
2021/01/30 12:23:39;;;;;;;23.97;15.40;;;2.30;99.90;;;;;;5113910;28;20203;-58
2021/01/30 12:26:04;;;;;;;25.27;15.70;;;2.30;99.90;;;;;;5117022;27;20188;-57
2021/01/30 12:28:32;;;;;;;26.67;14.90;;;2.40;99.90;;;;;;5125266;27;20184;-57
2021/01/30 12:30:59;;;;;;;24.83;15.53;;;2.50;99.90;;;;;;5113854;28;20182;-59
2021/01/30 12:33:25;;;;;;;25.60;16.07;;;2.60;99.90;;;;;;5113578;28;20468;-57
2021/01/30 12:35:51;;;;;;;17.90;12.67;;;2.70;99.90;;;;;;5114470;27;20445;-58
2021/01/30 12:38:16;;;;;;;24.03;14.73;;;2.70;99.90;;;;;;5113333;28;20437;-59
2021/01/30 12:40:47;;;;;;;23.10;14.63;;;2.60;99.90;;;;;;5113704;28;20180;-58
2021/01/30 12:43:21;;;;;;;22.23;14.80;;;2.60;99.90;;;;;;5119453;27;20205;-56
2021/01/30 12:45:47;;;;;;;22.53;13.77;;;2.60;99.90;;;;;;5131676;27;20503;-56
2021/01/30 12:48:13;;;;;;;35.00;20.03;;;2.60;99.90;;;;;;5115409;27;20466;-57
2021/01/30 12:50:39;;;;;;;18.53;12.40;;;2.60;99.90;;;;;;5113682;28;20903;-58
2021/01/30 12:53:07;;;;;;;21.70;12.50;;;2.60;99.90;;;;;;5114834;27;20183;-58
2021/01/30 12:55:34;;;;;;;20.13;11.93;;;2.70;99.90;;;;;;5122268;27;20893;-58
2021/01/30 12:58:13;;;;;;;24.80;15.13;;;3.90;99.90;;;;;;5133840;27;20780;-57
2021/01/30 13:00:38;;;;;;;34.23;18.47;;;3.00;99.90;;;;;;5133683;27;20468;-57
2021/01/30 13:03:04;;;;;;;16.20;10.17;;;3.00;99.90;;;;;;5133845;27;20513;-57
2021/01/30 13:05:30;;;;;;;15.07;11.43;;;3.10;57.50;;;;;;5122182;27;20179;-58
2021/01/30 13:07:55;;;;;;;14.63;10.00;;;3.00;51.20;;;;;;5113253;27;20570;-60
2021/01/30 13:10:21;;;;;;;14.17;10.20;;;3.00;57.00;;;;;;5112868;28;20667;-58
2021/01/30 13:12:49;;;;;;;17.40;11.00;;;3.00;49.50;;;;;;5112790;28;20185;-61
2021/01/30 13:15:15;;;;;;;15.57;11.30;;;3.00;51.80;;;;;;5111873;28;20178;-61
2021/01/30 13:17:40;;;;;;;14.70;10.37;;;2.90;45.70;;;;;;5113050;28;20435;-61
2021/01/30 13:20:06;;;;;;;15.50;11.10;;;2.90;48.10;;;;;;5112943;28;21013;-59